Time;durP1;ratioP1;P1;durP2;ratioP2;P2;SDS_P1;SDS_P2;PMS_P1;PMS_P2;Temp;Humidity;BMP_temperature;BMP_pressure;BME280_temperature;BME280_humidity;BME280_pressure;Samples;Min_cycle;Max_cycle;Signal;HPM_P1;HPM_P2
2023/04/03 00:00:35;;;;;;;3.15;2.80;;;;;5.20;99388.00;;;;5015940;28;20042;-62
2023/04/03 00:03:02;;;;;;;2.92;2.67;;;;;5.10;99381.00;;;;4998676;28;20056;-59
2023/04/03 00:05:29;;;;;;;3.20;2.90;;;;;5.10;99369.00;;;;5015546;28;20491;-58
2023/04/03 00:07:55;;;;;;;4.63;2.75;;;;;4.90;99365.00;;;;4998360;28;20042;-57
2023/04/03 00:10:22;;;;;;;3.53;2.53;;;;;4.80;99367.00;;;;5015405;28;20038;-57
2023/04/03 00:12:48;;;;;;;4.22;2.92;;;;;4.80;99372.00;;;;4998448;28;20042;-59
2023/04/03 00:15:15;;;;;;;3.10;2.83;;;;;4.70;99367.00;;;;5015677;28;20042;-59
2023/04/03 00:17:41;;;;;;;4.63;2.83;;;;;4.70;99376.00;;;;5015318;28;20052;-58
2023/04/03 00:20:09;;;;;;;3.05;2.72;;;;;4.70;99372.00;;;;5014877;28;20065;-62
2023/04/03 00:22:35;;;;;;;4.18;2.70;;;;;4.60;99377.00;;;;5014876;28;20047;-59
2023/04/03 00:25:03;;;;;;;4.85;2.70;;;;;4.60;99384.00;;;;5015085;28;20398;-58
2023/04/03 00:27:30;;;;;;;3.05;2.80;;;;;4.50;99378.00;;;;4997384;28;20112;-58
2023/04/03 00:29:56;;;;;;;3.65;3.05;;;;;4.50;99380.00;;;;4996952;28;20046;-58
2023/04/03 00:32:23;;;;;;;3.03;2.67;;;;;4.50;99374.00;;;;4997427;28;20103;-61
2023/04/03 00:34:49;;;;;;;4.35;2.92;;;;;4.50;99384.00;;;;4997474;28;20050;-63
2023/04/03 00:37:16;;;;;;;4.10;2.67;;;;;4.40;99383.00;;;;5014850;28;20095;-62
2023/04/03 00:39:42;;;;;;;5.10;3.55;;;;;4.40;99386.00;;;;5014206;28;20050;-62
2023/04/03 00:42:09;;;;;;;4.13;3.33;;;;;4.40;99387.00;;;;5014839;28;20411;-62
2023/04/03 00:44:36;;;;;;;5.13;3.72;;;;;4.30;99390.00;;;;5015307;28;20042;-62
2023/04/03 00:47:05;;;;;;;5.00;3.53;;;;;4.30;99379.00;;;;4997121;28;20117;-62
2023/04/03 00:49:31;;;;;;;4.20;3.70;;;;;4.30;99381.00;;;;4996471;28;20050;-61
2023/04/03 00:51:58;;;;;;;7.53;4.30;;;;;4.20;99380.00;;;;4996827;28;20053;-62
2023/04/03 00:54:26;;;;;;;5.53;4.15;;;;;4.20;99385.00;;;;4996784;28;20042;-62
2023/04/03 00:56:55;;;;;;;4.88;3.78;;;;;4.10;99384.00;;;;4996556;28;20042;-62
2023/04/03 00:59:35;;;;;;;4.65;3.65;;;;;4.10;99377.00;;;;5012645;28;20045;-62
2023/04/03 01:02:02;;;;;;;3.97;2.92;;;;;4.10;99384.00;;;;4996595;28;20046;-60
2023/04/03 01:04:40;;;;;;;5.15;3.40;;;;;4.10;99381.00;;;;5014035;28;20461;-60
2023/04/03 01:07:15;;;;;;;5.20;3.17;;;;;4.10;99378.00;;;;5012964;28;20100;-60
2023/04/03 01:09:42;;;;;;;5.60;3.72;;;;;4.00;99375.00;;;;5013731;28;20069;-61
2023/04/03 01:12:26;;;;;;;4.13;3.00;;;;;4.00;99368.00;;;;4996259;28;20064;-59
2023/04/03 01:14:59;;;;;;;4.05;3.05;;;;;3.90;99366.00;;;;4996424;28;20137;-61
2023/04/03 01:17:31;;;;;;;7.53;3.30;;;;;3.90;99363.00;;;;4996460;28;20132;-60
2023/04/03 01:20:21;;;;;;;3.45;3.15;;;;;3.90;99358.00;;;;5013560;28;20045;-59
2023/04/03 01:23:10;;;;;;;6.47;4.00;;;;;3.80;99364.00;;;;4985813;28;20049;-59
2023/04/03 01:25:37;;;;;;;5.78;3.25;;;;;3.80;99359.00;;;;4996243;28;20050;-58
2023/04/03 01:28:09;;;;;;;4.70;2.95;;;;;3.70;99364.00;;;;4996239;28;20054;-60
2023/04/03 01:30:44;;;;;;;4.22;3.75;;;;;3.70;99370.00;;;;5013422;28;20037;-60
2023/04/03 01:33:11;;;;;;;3.65;3.35;;;;;3.70;99368.00;;;;5012310;28;20100;-60
2023/04/03 01:35:38;;;;;;;5.47;3.60;;;;;3.70;99365.00;;;;5012487;28;20046;-59
2023/04/03 01:38:05;;;;;;;4.22;3.35;;;;;3.70;99363.00;;;;5013979;28;20069;-60
2023/04/03 01:40:32;;;;;;;5.65;3.42;;;;;3.70;99370.00;;;;5013058;28;20053;-60
2023/04/03 01:42:59;;;;;;;5.85;4.13;;;;;3.70;99362.00;;;;4996063;28;20052;-60
2023/04/03 01:45:26;;;;;;;6.32;4.00;;;;;3.70;99364.00;;;;5013371;28;20052;-61
2023/04/03 01:47:53;;;;;;;5.57;4.28;;;;;3.60;99370.00;;;;5013081;28;20096;-61
2023/04/03 01:50:20;;;;;;;6.07;3.70;;;;;3.60;99369.00;;;;4995585;28;20056;-61
2023/04/03 01:52:47;;;;;;;5.57;3.58;;;;;3.50;99368.00;;;;4995563;28;20100;-61
2023/04/03 01:55:13;;;;;;;4.38;3.50;;;;;3.50;99370.00;;;;5012315;28;20054;-60
2023/04/03 01:57:40;;;;;;;5.32;3.30;;;;;3.50;99359.00;;;;4996215;28;20046;-60
2023/04/03 02:00:07;;;;;;;9.82;6.65;;;;;3.50;99369.00;;;;4996416;28;20084;-61
2023/04/03 02:02:38;;;;;;;6.65;4.40;;;;;3.50;99361.00;;;;5013811;28;20060;-61
2023/04/03 02:05:06;;;;;;;8.00;4.25;;;;;3.50;99361.00;;;;4996261;28;20510;-60
2023/04/03 02:07:33;;;;;;;6.95;3.85;;;;;3.40;99367.00;;;;5013342;28;20046;-61
2023/04/03 02:09:59;;;;;;;7.88;4.43;;;;;3.40;99364.00;;;;5012538;28;20046;-61
2023/04/03 02:12:26;;;;;;;3.67;3.20;;;;;3.40;99365.00;;;;5012956;28;20037;-61
2023/04/03 02:14:52;;;;;;;3.75;3.45;;;;;3.40;99359.00;;;;5012976;28;20042;-60
2023/04/03 02:17:19;;;;;;;3.83;3.53;;;;;3.40;99362.00;;;;5012982;28;20108;-60
2023/04/03 02:19:46;;;;;;;3.92;3.42;;;;;3.30;99359.00;;;;5012544;28;20038;-60
2023/04/03 02:22:13;;;;;;;4.82;3.50;;;;;3.40;99359.00;;;;5011633;28;20499;-59
2023/04/03 02:24:40;;;;;;;4.60;3.55;;;;;3.20;99352.00;;;;4995416;28;20052;-60
2023/04/03 02:27:07;;;;;;;4.40;3.53;;;;;3.20;99351.00;;;;4994993;28;20050;-60
2023/04/03 02:29:33;;;;;;;5.55;3.67;;;;;3.20;99357.00;;;;5012254;28;20044;-60
2023/04/03 02:32:00;;;;;;;5.47;4.10;;;;;3.20;99351.00;;;;5012429;28;20039;-60
2023/04/03 02:34:28;;;;;;;6.57;4.00;;;;;3.30;99352.00;;;;4995069;28;20141;-60
2023/04/03 02:36:57;;;;;;;10.18;4.40;;;;;3.30;99353.00;;;;4995118;28;20046;-61
2023/04/03 02:39:24;;;;;;;4.90;4.40;;;;;3.30;99363.00;;;;4995034;28;20046;-60
2023/04/03 02:41:51;;;;;;;5.65;4.03;;;;;3.20;99353.00;;;;4995039;28;20077;-59
2023/04/03 02:44:23;;;;;;;5.35;4.15;;;;;3.20;99355.00;;;;4994985;28;20558;-60
2023/04/03 02:46:51;;;;;;;5.88;4.30;;;;;3.20;99361.00;;;;5012605;28;20046;-60
2023/04/03 02:49:17;;;;;;;6.32;3.78;;;;;3.20;99362.00;;;;5012425;28;20048;-60
2023/04/03 02:51:44;;;;;;;4.82;3.85;;;;;3.20;99359.00;;;;5012535;28;20388;-60
2023/04/03 02:54:11;;;;;;;7.38;3.92;;;;;3.30;99355.00;;;;5012657;28;20038;-60
2023/04/03 02:56:41;;;;;;;4.78;3.92;;;;;3.30;99359.00;;;;4994921;28;20073;-59
2023/04/03 02:59:08;;;;;;;4.90;4.00;;;;;3.30;99354.00;;;;5012186;28;20050;-59
2023/04/03 03:01:38;;;;;;;5.05;3.80;;;;;3.30;99355.00;;;;5011686;28;20399;-59
2023/04/03 03:04:04;;;;;;;6.95;3.88;;;;;3.40;99357.00;;;;5015069;28;20514;-60
2023/04/03 03:06:31;;;;;;;4.20;3.60;;;;;3.30;99362.00;;;;5016402;28;20415;-61
2023/04/03 03:08:58;;;;;;;6.18;3.70;;;;;3.30;99352.00;;;;5016028;28;20045;-60
2023/04/03 03:11:25;;;;;;;4.70;3.63;;;;;3.20;99357.00;;;;5016121;28;20050;-60
2023/04/03 03:13:52;;;;;;;4.68;3.50;;;;;3.20;99351.00;;;;4998947;28;20404;-61
2023/04/03 03:16:18;;;;;;;4.30;3.60;;;;;3.20;99356.00;;;;5016119;28;20053;-61
2023/04/03 03:18:45;;;;;;;4.40;3.40;;;;;3.30;99361.00;;;;4998709;28;20050;-60
2023/04/03 03:21:11;;;;;;;4.75;4.30;;;;;3.20;99351.00;;;;5016353;28;20490;-59
2023/04/03 03:23:38;;;;;;;4.78;4.07;;;;;3.20;99358.00;;;;5016372;28;20060;-59
2023/04/03 03:26:09;;;;;;;4.43;4.03;;;;;3.10;99352.00;;;;4998665;28;20146;-59
2023/04/03 03:28:37;;;;;;;6.15;3.78;;;;;3.10;99348.00;;;;4998252;28;20054;-59
2023/04/03 03:31:05;;;;;;;4.20;3.75;;;;;3.10;99354.00;;;;5014516;28;20042;-59
2023/04/03 03:33:33;;;;;;;4.20;3.83;;;;;3.00;99359.00;;;;4998473;28;20462;-60
2023/04/03 03:36:00;;;;;;;3.97;3.50;;;;;3.00;99358.00;;;;5015779;28;20042;-59
2023/04/03 03:38:26;;;;;;;4.40;4.00;;;;;3.00;99356.00;;;;5015513;28;20045;-60
2023/04/03 03:40:53;;;;;;;6.68;4.03;;;;;3.00;99352.00;;;;4998106;28;20084;-59
2023/04/03 03:43:22;;;;;;;4.25;3.55;;;;;3.00;99350.00;;;;4998048;28;20502;-60
2023/04/03 03:45:52;;;;;;;3.92;3.55;;;;;2.90;99350.00;;;;4997924;28;20076;-59
2023/04/03 03:48:20;;;;;;;4.78;3.13;;;;;2.90;99344.00;;;;4998798;28;20042;-59
2023/04/03 03:50:47;;;;;;;6.45;4.78;;;;;2.90;99351.00;;;;4998106;28;20188;-59
2023/04/03 03:53:14;;;;;;;9.00;5.30;;;;;2.90;99357.00;;;;5014893;28;20686;-58
2023/04/03 03:55:42;;;;;;;6.22;3.95;;;;;2.90;99354.00;;;;4997970;28;20533;-60
2023/04/03 03:58:09;;;;;;;4.25;3.20;;;;;2.90;99352.00;;;;4997749;28;20553;-60
2023/04/03 04:00:36;;;;;;;6.25;3.53;;;;;2.90;99357.00;;;;5013875;28;20053;-60
2023/04/03 04:03:03;;;;;;;5.30;3.72;;;;;2.80;99351.00;;;;4997840;28;20065;-59
2023/04/03 04:05:30;;;;;;;3.45;2.88;;;;;2.80;99354.00;;;;4997836;28;20050;-60
2023/04/03 04:07:59;;;;;;;5.88;2.95;;;;;2.80;99357.00;;;;4997350;28;20514;-60
2023/04/03 04:10:26;;;;;;;5.15;2.92;;;;;2.80;99357.00;;;;5016116;28;20042;-59
2023/04/03 04:12:54;;;;;;;6.45;3.13;;;;;2.80;99351.00;;;;4997228;28;20061;-60
2023/04/03 04:15:25;;;;;;;3.55;2.90;;;;;2.90;99363.00;;;;4997215;28;20108;-60
2023/04/03 04:17:53;;;;;;;4.13;2.70;;;;;2.90;99362.00;;;;4995279;28;20073;-61
2023/04/03 04:20:20;;;;;;;3.25;2.30;;;;;2.80;99356.00;;;;4997527;28;20406;-60
2023/04/03 04:22:47;;;;;;;4.95;2.75;;;;;2.80;99359.00;;;;4997376;28;20096;-60
2023/04/03 04:25:15;;;;;;;4.35;3.03;;;;;2.80;99352.00;;;;4997504;28;20042;-61
2023/04/03 04:27:42;;;;;;;4.85;2.88;;;;;2.80;99358.00;;;;5013852;28;20056;-61
2023/04/03 04:30:12;;;;;;;6.38;2.42;;;;;2.70;99355.00;;;;4997010;28;20392;-61
2023/04/03 04:32:39;;;;;;;2.83;2.53;;;;;2.80;99360.00;;;;4997425;28;20113;-60
2023/04/03 04:35:06;;;;;;;5.50;2.70;;;;;2.70;99348.00;;;;4997741;28;20136;-60
2023/04/03 04:37:36;;;;;;;5.97;2.60;;;;;2.70;99357.00;;;;4997323;28;20045;-60
2023/04/03 04:40:03;;;;;;;4.53;2.75;;;;;2.80;99362.00;;;;4997141;28;20415;-60
2023/04/03 04:42:29;;;;;;;3.85;2.60;;;;;2.70;99349.00;;;;4997555;28;20050;-60
2023/04/03 04:44:56;;;;;;;3.70;2.75;;;;;2.70;99340.00;;;;5015444;28;20037;-61
2023/04/03 04:47:23;;;;;;;4.70;2.88;;;;;2.70;99349.00;;;;4997500;28;20080;-61
2023/04/03 04:49:50;;;;;;;4.63;2.85;;;;;2.70;99348.00;;;;4996773;28;20053;-61
2023/04/03 04:52:17;;;;;;;5.03;2.83;;;;;2.70;99354.00;;;;4996939;28;20046;-61
2023/04/03 04:54:44;;;;;;;3.72;2.70;;;;;2.70;99351.00;;;;4996784;28;20053;-61
2023/04/03 04:57:11;;;;;;;4.13;3.10;;;;;2.80;99362.00;;;;4996672;28;20046;-61
2023/04/03 04:59:38;;;;;;;3.60;2.85;;;;;2.70;99363.00;;;;4996443;28;20506;-61
2023/04/03 05:02:06;;;;;;;3.95;2.72;;;;;2.80;99361.00;;;;4998186;28;20045;-60
2023/04/03 05:04:36;;;;;;;7.30;2.80;;;;;2.80;99376.00;;;;4997582;28;20502;-59
2023/04/03 05:07:09;;;;;;;3.28;2.78;;;;;2.80;99379.00;;;;4997359;28;20049;-60
2023/04/03 05:09:36;;;;;;;6.20;2.92;;;;;2.70;99372.00;;;;4997652;28;20056;-60
2023/04/03 05:12:04;;;;;;;3.90;2.50;;;;;2.70;99374.00;;;;4997697;28;20092;-61
2023/04/03 05:14:37;;;;;;;4.18;3.05;;;;;2.80;99382.00;;;;5015268;28;20050;-61
2023/04/03 05:17:06;;;;;;;5.28;3.00;;;;;2.90;99381.00;;;;4996806;28;20516;-59
2023/04/03 05:19:35;;;;;;;4.15;3.25;;;;;2.90;99389.00;;;;4996109;28;20053;-60
2023/04/03 05:22:04;;;;;;;5.75;2.92;;;;;2.80;99381.00;;;;4996350;28;20051;-62
2023/04/03 05:24:30;;;;;;;4.32;2.97;;;;;2.80;99382.00;;;;5013717;28;20057;-60
2023/04/03 05:26:57;;;;;;;4.28;2.55;;;;;2.90;99380.00;;;;5013763;28;20041;-60
2023/04/03 05:29:25;;;;;;;6.25;3.28;;;;;2.90;99388.00;;;;5012315;28;20105;-61
2023/04/03 05:31:52;;;;;;;7.85;5.45;;;;;2.90;99378.00;;;;5012463;28;20042;-60
2023/04/03 05:34:19;;;;;;;10.80;5.03;;;;;2.90;99388.00;;;;4996100;28;20058;-61
2023/04/03 05:36:48;;;;;;;4.97;2.95;;;;;2.90;99382.00;;;;4996173;28;20514;-61
2023/04/03 05:39:15;;;;;;;3.58;2.88;;;;;3.00;99382.00;;;;5012023;28;20073;-60
2023/04/03 05:41:45;;;;;;;4.53;2.92;;;;;3.00;99385.00;;;;5012397;28;20100;-60
2023/04/03 05:44:11;;;;;;;6.40;2.90;;;;;3.00;99392.00;;;;4995958;28;20049;-61
2023/04/03 05:46:39;;;;;;;6.70;3.00;;;;;3.00;99391.00;;;;4995756;28;20053;-60
2023/04/03 05:49:08;;;;;;;4.05;3.40;;;;;3.00;99397.00;;;;5013080;28;20034;-61
2023/04/03 05:51:38;;;;;;;4.50;2.80;;;;;3.00;99401.00;;;;4995712;28;20084;-60
2023/04/03 05:54:24;;;;;;;7.85;3.38;;;;;3.10;99395.00;;;;4996108;28;20053;-61
2023/04/03 05:56:55;;;;;;;3.35;3.05;;;;;3.10;99405.00;;;;4995663;28;20120;-61
2023/04/03 05:59:23;;;;;;;4.63;3.38;;;;;3.20;99404.00;;;;4995483;28;20085;-61
2023/04/03 06:01:52;;;;;;;3.90;3.50;;;;;3.30;99409.00;;;;5011753;28;20519;-58
2023/04/03 06:04:20;;;;;;;4.65;3.42;;;;;3.30;99407.00;;;;5022343;28;20045;-61
2023/04/03 06:06:52;;;;;;;5.47;4.28;;;;;3.30;99415.00;;;;5013938;28;20054;-61
2023/04/03 06:09:21;;;;;;;6.40;3.88;;;;;3.30;99414.00;;;;5009719;28;20541;-61
2023/04/03 06:11:48;;;;;;;5.80;4.13;;;;;3.40;99406.00;;;;5028344;28;20038;-60
2023/04/03 06:14:16;;;;;;;6.75;4.15;;;;;3.40;99419.00;;;;5008256;28;20045;-60
2023/04/03 06:16:43;;;;;;;5.60;4.25;;;;;3.50;99408.00;;;;5012496;28;20050;-60
2023/04/03 06:19:11;;;;;;;8.63;3.92;;;;;3.70;99414.00;;;;5029338;28;20053;-60
2023/04/03 06:21:43;;;;;;;6.47;3.77;;;;;3.80;99413.00;;;;5009686;28;20042;-60
2023/04/03 06:24:14;;;;;;;7.50;4.10;;;;;3.90;99414.00;;;;5019418;28;20053;-60
2023/04/03 06:26:41;;;;;;;7.50;3.85;;;;;3.90;99419.00;;;;5024690;28;20045;-60
2023/04/03 06:29:08;;;;;;;7.32;3.83;;;;;4.10;99422.00;;;;5014675;28;20076;-59
2023/04/03 06:31:36;;;;;;;5.68;3.85;;;;;4.20;99429.00;;;;5012947;28;20076;-57
2023/04/03 06:34:03;;;;;;;5.35;3.63;;;;;4.20;99430.00;;;;5012897;28;20046;-57
2023/04/03 06:36:32;;;;;;;5.25;3.47;;;;;4.30;99427.00;;;;5011911;28;20517;-58
2023/04/03 06:38:59;;;;;;;5.53;3.70;;;;;4.20;99435.00;;;;5012433;28;20042;-57
2023/04/03 06:41:26;;;;;;;5.13;3.30;;;;;4.30;99434.00;;;;5012396;28;20557;-61
2023/04/03 06:43:53;;;;;;;5.25;3.17;;;;;4.40;99442.00;;;;5012406;28;20042;-59
2023/04/03 06:46:21;;;;;;;3.53;2.85;;;;;4.40;99446.00;;;;5012577;28;20041;-59
2023/04/03 06:48:49;;;;;;;5.18;2.75;;;;;4.50;99450.00;;;;5012252;28;20042;-62
2023/04/03 06:51:22;;;;;;;7.00;3.63;;;;;4.60;99448.00;;;;4995592;28;20068;-56
2023/04/03 06:53:50;;;;;;;2.78;2.00;;;;;4.80;99451.00;;;;5011592;28;20487;-57
2023/04/03 06:56:17;;;;;;;6.38;2.70;;;;;4.90;99444.00;;;;5012497;28;20041;-56
2023/04/03 06:58:44;;;;;;;4.80;2.75;;;;;4.90;99451.00;;;;5011311;28;20053;-57
2023/04/03 07:01:13;;;;;;;4.22;2.45;;;;;5.20;99442.00;;;;4994891;28;20057;-60
2023/04/03 07:03:40;;;;;;;4.13;2.30;;;;;5.30;99446.00;;;;5012602;28;20113;-59
2023/04/03 07:06:11;;;;;;;5.15;3.05;;;;;5.30;99449.00;;;;5012361;28;20499;-60
2023/04/03 07:08:38;;;;;;;18.00;7.88;;;;;5.40;99463.00;;;;5012168;28;20081;-60
2023/04/03 07:11:05;;;;;;;6.30;2.25;;;;;5.30;99456.00;;;;4994773;28;20054;-61
2023/04/03 07:13:32;;;;;;;5.35;2.90;;;;;5.40;99462.00;;;;5012121;28;20479;-60
2023/04/03 07:15:59;;;;;;;5.30;3.00;;;;;5.40;99461.00;;;;5012337;28;20053;-59
2023/04/03 07:18:26;;;;;;;6.45;3.50;;;;;5.30;99458.00;;;;5011907;28;20558;-59
2023/04/03 07:20:52;;;;;;;5.43;2.10;;;;;5.20;99466.00;;;;5012326;28;20050;-60
2023/04/03 07:23:19;;;;;;;6.72;2.15;;;;;5.20;99465.00;;;;5012279;28;20037;-60
2023/04/03 07:25:47;;;;;;;5.10;2.30;;;;;5.10;99461.00;;;;5012226;28;20491;-59
2023/04/03 07:28:15;;;;;;;5.70;3.15;;;;;5.20;99471.00;;;;5012212;28;20521;-60
2023/04/03 07:30:46;;;;;;;4.13;2.40;;;;;5.20;99467.00;;;;5012124;28;20045;-63
2023/04/03 07:33:14;;;;;;;8.02;2.50;;;;;5.40;99477.00;;;;5011988;28;20073;-63
2023/04/03 07:35:41;;;;;;;4.13;2.25;;;;;5.30;99473.00;;;;5014331;28;20044;-63
2023/04/03 07:38:08;;;;;;;5.13;2.60;;;;;5.30;99477.00;;;;5018809;28;20045;-62
2023/04/03 07:40:36;;;;;;;4.47;2.63;;;;;5.30;99480.00;;;;5025737;28;20092;-63
2023/04/03 07:43:05;;;;;;;5.70;2.58;;;;;5.30;99480.00;;;;5027286;28;20100;-62
2023/04/03 07:45:34;;;;;;;5.93;2.75;;;;;5.40;99477.00;;;;5010568;28;20060;-61
2023/04/03 07:48:02;;;;;;;4.15;2.80;;;;;5.60;99481.00;;;;5008658;28;20149;-61
2023/04/03 07:50:30;;;;;;;3.97;2.47;;;;;5.90;99472.00;;;;5026248;28;20046;-64
2023/04/03 07:52:57;;;;;;;4.30;2.75;;;;;6.10;99484.00;;;;5011871;28;20045;-62
2023/04/03 07:55:25;;;;;;;4.00;2.50;;;;;6.10;99480.00;;;;5026222;28;20601;-60
2023/04/03 07:57:51;;;;;;;8.38;2.42;;;;;6.20;99483.00;;;;5027225;28;20061;-61
2023/04/03 08:00:19;;;;;;;4.53;2.22;;;;;6.30;99474.00;;;;5026258;28;20060;-62
2023/04/03 08:02:51;;;;;;;4.30;2.67;;;;;6.40;99492.00;;;;5031878;28;20038;-62
2023/04/03 08:05:19;;;;;;;5.38;2.58;;;;;6.50;99485.00;;;;4996525;28;20053;-62
2023/04/03 08:07:46;;;;;;;4.30;2.65;;;;;6.50;99492.00;;;;5020592;28;20060;-62
2023/04/03 08:10:14;;;;;;;5.22;2.88;;;;;6.60;99488.00;;;;5016620;28;20491;-62
2023/04/03 08:12:41;;;;;;;4.22;2.20;;;;;6.80;99487.00;;;;5016141;28;20042;-63
2023/04/03 08:15:08;;;;;;;5.38;2.50;;;;;6.70;99498.00;;;;5015868;28;20509;-62
2023/04/03 08:17:35;;;;;;;3.90;2.30;;;;;6.80;99478.00;;;;4997893;28;20096;-61
2023/04/03 08:20:04;;;;;;;6.07;2.35;;;;;6.70;99481.00;;;;4997390;28;20094;-62
2023/04/03 08:22:31;;;;;;;6.35;2.17;;;;;6.90;99494.00;;;;5015438;28;20049;-61
2023/04/03 08:24:57;;;;;;;5.53;2.25;;;;;7.10;99495.00;;;;5016082;28;20054;-61
2023/04/03 08:27:26;;;;;;;5.93;2.22;;;;;7.20;99489.00;;;;4997921;28;20475;-60
2023/04/03 08:29:54;;;;;;;3.63;2.20;;;;;7.30;99486.00;;;;5015682;28;20079;-62
2023/04/03 08:32:22;;;;;;;5.53;2.63;;;;;7.40;99487.00;;;;5014941;28;20046;-62
2023/04/03 08:34:48;;;;;;;6.25;2.38;;;;;7.60;99487.00;;;;5015971;28;20053;-62
2023/04/03 08:37:16;;;;;;;3.30;1.90;;;;;8.00;99500.00;;;;5015459;28;20754;-62
2023/04/03 08:39:43;;;;;;;5.40;2.60;;;;;8.00;99480.00;;;;5014531;28;20046;-62
2023/04/03 08:42:26;;;;;;;6.68;2.83;;;;;8.10;99480.00;;;;5014629;28;20455;-61
2023/04/03 08:45:03;;;;;;;5.97;2.25;;;;;8.30;99487.00;;;;4997391;28;20048;-61
2023/04/03 08:47:59;;;;;;;4.53;2.22;;;;;8.50;99489.00;;;;4997146;28;20527;-59
2023/04/03 08:50:35;;;;;;;6.80;2.20;;;;;8.50;99490.00;;;;4961337;28;20423;-60
2023/04/03 08:53:04;;;;;;;3.45;2.20;;;;;8.60;99473.00;;;;4996689;28;20053;-62
2023/04/03 08:55:34;;;;;;;3.45;1.90;;;;;8.70;99483.00;;;;5014644;28;20082;-62
2023/04/03 08:58:07;;;;;;;5.05;2.50;;;;;8.80;99484.00;;;;5014426;28;20049;-61
2023/04/03 09:01:00;;;;;;;4.97;2.60;;;;;8.90;99506.00;;;;4996012;28;20045;-61
2023/04/03 09:03:30;;;;;;;5.00;2.33;;;;;8.90;99505.00;;;;5014930;28;20042;-61
2023/04/03 09:06:05;;;;;;;3.92;2.30;;;;;8.90;99506.00;;;;5014561;28;20042;-62
2023/04/03 09:08:40;;;;;;;6.30;2.28;;;;;9.10;99492.00;;;;5013806;28;20537;-62
2023/04/03 09:11:12;;;;;;;8.07;2.45;;;;;9.20;99492.00;;;;5016189;28;20048;-62
2023/04/03 09:13:49;;;;;;;4.60;2.30;;;;;9.10;99497.00;;;;5014445;28;20042;-61
2023/04/03 09:16:47;;;;;;;7.45;3.22;;;;;9.40;99498.00;;;;5018799;28;20057;-60
2023/04/03 09:19:33;;;;;;;2.80;1.90;;;;;9.30;99496.00;;;;5016245;28;20045;-62
2023/04/03 09:22:29;;;;;;;4.10;2.10;;;;;9.30;99503.00;;;;5010854;28;20049;-62
2023/04/03 09:25:10;;;;;;;2.47;1.80;;;;;9.40;99500.00;;;;4967249;28;20054;-64
2023/04/03 09:27:37;;;;;;;4.97;1.95;;;;;9.30;99504.00;;;;5014866;28;20057;-62
2023/04/03 09:30:04;;;;;;;3.15;1.83;;;;;9.00;99493.00;;;;5013836;28;20052;-62
2023/04/03 09:32:34;;;;;;;4.07;1.80;;;;;8.90;99499.00;;;;5013957;28;20071;-62
2023/04/03 09:35:10;;;;;;;3.50;1.80;;;;;8.90;99503.00;;;;5014643;28;20128;-61
2023/04/03 09:37:51;;;;;;;5.97;2.20;;;;;8.80;99498.00;;;;5014981;28;20553;-62
2023/04/03 09:40:34;;;;;;;4.18;2.10;;;;;8.70;99493.00;;;;5013981;28;20491;-62
2023/04/03 09:43:25;;;;;;;4.95;2.40;;;;;9.00;99494.00;;;;5014496;28;20121;-62
2023/04/03 09:45:53;;;;;;;3.53;1.83;;;;;9.20;99497.00;;;;5014441;28;20509;-63
2023/04/03 09:48:26;;;;;;;2.58;1.58;;;;;9.30;99490.00;;;;5013834;28;20517;-63
2023/04/03 09:50:59;;;;;;;2.30;1.60;;;;;9.30;99488.00;;;;4996496;28;20048;-62
2023/04/03 09:53:38;;;;;;;3.40;1.65;;;;;9.30;99493.00;;;;5013590;28;20084;-62
2023/04/03 09:56:23;;;;;;;2.90;1.50;;;;;9.50;99494.00;;;;5013879;28;20471;-63
2023/04/03 09:58:58;;;;;;;3.45;1.70;;;;;9.60;99491.00;;;;5014266;28;20104;-62
2023/04/03 10:01:36;;;;;;;5.55;1.88;;;;;9.80;99489.00;;;;5013613;28;20526;-62
2023/04/03 10:04:13;;;;;;;3.28;2.00;;;;;9.90;99500.00;;;;5013937;28;20038;-62
2023/04/03 10:06:46;;;;;;;3.08;1.85;;;;;9.90;99499.00;;;;5013355;28;20407;-62
2023/04/03 10:09:25;;;;;;;5.80;2.03;;;;;10.20;99490.00;;;;5011820;28;20141;-62
2023/04/03 10:12:09;;;;;;;11.98;5.85;;;;;10.20;99505.00;;;;5012204;28;20054;-62
2023/04/03 10:14:50;;;;;;;5.55;1.95;;;;;10.10;99516.00;;;;5013060;28;20045;-63
2023/04/03 10:17:22;;;;;;;15.60;8.50;;;;;9.80;99507.00;;;;4995434;28;20053;-62
2023/04/03 10:20:03;;;;;;;3.75;1.90;;;;;9.50;99500.00;;;;5012876;28;20053;-62
2023/04/03 10:23:00;;;;;;;4.47;1.90;;;;;9.60;99497.00;;;;5013038;28;20107;-63
2023/04/03 10:25:52;;;;;;;5.53;2.05;;;;;9.40;99497.00;;;;4995495;28;20050;-62
2023/04/03 10:28:23;;;;;;;3.53;1.70;;;;;9.40;99503.00;;;;5013397;28;20042;-61
2023/04/03 10:31:06;;;;;;;4.20;1.83;;;;;9.50;99504.00;;;;4995492;28;20104;-62
2023/04/03 10:33:52;;;;;;;3.72;1.80;;;;;9.50;99493.00;;;;4995982;28;20041;-62
2023/04/03 10:36:42;;;;;;;3.30;2.00;;;;;9.70;99496.00;;;;5013587;28;20050;-62
2023/04/03 10:39:23;;;;;;;3.35;1.90;;;;;9.50;99501.00;;;;5013835;28;20050;-62
2023/04/03 10:42:18;;;;;;;3.35;1.77;;;;;9.60;99499.00;;;;5013517;28;20041;-62
2023/04/03 10:45:05;;;;;;;2.13;1.58;;;;;9.50;99501.00;;;;5013376;28;20038;-62
2023/04/03 10:48:13;;;;;;;3.70;1.73;;;;;9.60;99489.00;;;;5013171;28;20042;-62
2023/04/03 10:51:03;;;;;;;4.32;1.48;;;;;9.80;99497.00;;;;5013248;28;20042;-61
2023/04/03 10:53:55;;;;;;;9.85;3.05;;;;;9.70;99504.00;;;;5013908;28;20049;-62
2023/04/03 10:56:37;;;;;;;2.55;1.70;;;;;9.80;99506.00;;;;4997056;28;20148;-62
2023/04/03 10:59:29;;;;;;;2.55;1.73;;;;;9.90;99500.00;;;;5013712;28;20407;-62
2023/04/03 11:02:01;;;;;;;4.25;1.52;;;;;9.80;99497.00;;;;4996904;28;20102;-62
2023/04/03 11:04:34;;;;;;;3.53;1.58;;;;;9.40;99502.00;;;;5013265;28;20070;-62
2023/04/03 11:07:09;;;;;;;4.22;1.60;;;;;9.20;99508.00;;;;5013773;28;20049;-63
2023/04/03 11:09:41;;;;;;;3.50;1.75;;;;;9.00;99505.00;;;;5012721;28;20076;-62
2023/04/03 11:12:54;;;;;;;4.65;1.95;;;;;9.40;99504.00;;;;5013320;28;20124;-62
2023/04/03 11:15:23;;;;;;;2.38;1.50;;;;;9.40;99501.00;;;;4969007;28;20410;-62
2023/04/03 11:18:08;;;;;;;3.28;1.65;;;;;9.40;99498.00;;;;5013302;28;20053;-62
2023/04/03 11:20:41;;;;;;;4.00;1.77;;;;;9.40;99498.00;;;;4996642;28;20067;-62
2023/04/03 11:23:26;;;;;;;3.35;2.05;;;;;9.40;99498.00;;;;5015541;28;20042;-61
2023/04/03 11:26:10;;;;;;;5.78;2.00;;;;;9.30;99497.00;;;;5017111;28;20533;-63
2023/04/03 11:28:37;;;;;;;4.90;1.67;;;;;9.20;99486.00;;;;5017184;28;20045;-62
2023/04/03 11:31:31;;;;;;;6.03;1.95;;;;;9.50;99492.00;;;;5017018;28;20071;-61
2023/04/03 11:34:40;;;;;;;3.58;2.03;;;;;9.50;99491.00;;;;5017373;28;20050;-60
2023/04/03 11:37:16;;;;;;;4.38;2.00;;;;;9.50;99482.00;;;;5016905;28;20087;-61
2023/04/03 11:39:53;;;;;;;3.15;1.80;;;;;9.60;99498.00;;;;4998248;28;20056;-63
2023/04/03 11:42:32;;;;;;;5.35;1.90;;;;;9.50;99488.00;;;;5016543;28;20049;-63
2023/04/03 11:45:17;;;;;;;2.75;1.60;;;;;9.40;99495.00;;;;4999097;28;20045;-63
2023/04/03 11:47:49;;;;;;;5.53;1.52;;;;;9.40;99488.00;;;;5016599;28;20057;-63
2023/04/03 11:50:34;;;;;;;4.03;1.63;;;;;9.20;99480.00;;;;5015973;28;20112;-63
2023/04/03 11:53:07;;;;;;;4.05;1.70;;;;;9.20;99482.00;;;;5014892;28;20042;-61
2023/04/03 11:55:34;;;;;;;3.13;1.50;;;;;9.20;99476.00;;;;5016015;28;20042;-59
2023/04/03 11:58:01;;;;;;;4.00;1.65;;;;;9.30;99468.00;;;;5016074;28;20281;-62
2023/04/03 12:00:43;;;;;;;4.80;1.95;;;;;9.60;99467.00;;;;4997747;28;20041;-59
2023/04/03 12:03:28;;;;;;;3.42;1.70;;;;;9.50;99471.00;;;;5015553;28;20042;-59
2023/04/03 12:06:06;;;;;;;4.10;1.75;;;;;9.60;99465.00;;;;5014214;28;20141;-60
2023/04/03 12:08:32;;;;;;;4.63;1.85;;;;;9.50;99469.00;;;;5015275;28;20057;-60
2023/04/03 12:11:11;;;;;;;2.90;1.50;;;;;9.40;99449.00;;;;5015080;28;20041;-60
2023/04/03 12:13:48;;;;;;;4.65;1.85;;;;;9.50;99453.00;;;;5013966;28;20089;-60
2023/04/03 12:16:27;;;;;;;4.88;2.42;;;;;9.70;99452.00;;;;5015247;28;20491;-62
2023/04/03 12:19:02;;;;;;;3.40;2.05;;;;;9.80;99455.00;;;;5014966;28;20046;-59
2023/04/03 12:21:28;;;;;;;5.65;1.90;;;;;9.80;99455.00;;;;5015396;28;20076;-60
2023/04/03 12:24:01;;;;;;;3.10;1.77;;;;;10.00;99467.00;;;;5017231;28;20045;-60
2023/04/03 12:26:37;;;;;;;4.88;1.50;;;;;9.90;99461.00;;;;4999490;28;20042;-62
2023/04/03 12:29:32;;;;;;;2.67;1.80;;;;;9.80;99459.00;;;;5014459;28;20046;-63
2023/04/03 12:32:22;;;;;;;1.38;1.27;;;;;9.70;99440.00;;;;4997650;28;20096;-63
2023/04/03 12:35:08;;;;;;;3.25;1.70;;;;;9.70;99436.00;;;;5014257;28;20042;-63
2023/04/03 12:37:35;;;;;;;2.92;1.60;;;;;9.80;99451.00;;;;4981513;28;20463;-63
2023/04/03 12:40:08;;;;;;;5.30;2.47;;;;;9.60;99451.00;;;;4997312;28;20549;-63
2023/04/03 12:43:07;;;;;;;1.77;1.33;;;;;9.40;99439.00;;;;5015538;28;20046;-62
2023/04/03 12:45:45;;;;;;;3.08;1.63;;;;;9.50;99445.00;;;;4997667;28;20042;-59
2023/04/03 12:48:16;;;;;;;4.68;1.83;;;;;9.50;99450.00;;;;5014423;28;20065;-59